sensor_id;sensor_type;location;lat;lon;timestamp;P1;durP1;ratioP1;P2;durP2;ratioP2
77322;SDS011;66384;51.052;9.850;2023-04-24T00:01:30;2.60;;;1.80;;
77322;SDS011;66384;51.052;9.850;2023-04-24T00:04:00;2.30;;;1.80;;
77322;SDS011;66384;51.052;9.850;2023-04-24T00:06:30;2.60;;;1.70;;
77322;SDS011;66384;51.052;9.850;2023-04-24T00:09:00;2.20;;;1.70;;
77322;SDS011;66384;51.052;9.850;2023-04-24T00:11:30;5.00;;;2.10;;
77322;SDS011;66384;51.052;9.850;2023-04-24T00:13:59;2.90;;;1.90;;
77322;SDS011;66384;51.052;9.850;2023-04-24T00:16:28;3.30;;;2.10;;
77322;SDS011;66384;51.052;9.850;2023-04-24T00:18:58;2.40;;;1.70;;
77322;SDS011;66384;51.052;9.850;2023-04-24T00:21:28;2.80;;;1.70;;
77322;SDS011;66384;51.052;9.850;2023-04-24T00:23:59;2.60;;;1.60;;
77322;SDS011;66384;51.052;9.850;2023-04-24T00:26:28;2.80;;;1.80;;
77322;SDS011;66384;51.052;9.850;2023-04-24T00:28:57;1.90;;;1.60;;
77322;SDS011;66384;51.052;9.850;2023-04-24T00:31:27;1.90;;;1.60;;
77322;SDS011;66384;51.052;9.850;2023-04-24T00:33:57;2.70;;;1.70;;
77322;SDS011;66384;51.052;9.850;2023-04-24T00:36:26;2.90;;;1.80;;
77322;SDS011;66384;51.052;9.850;2023-04-24T00:38:57;2.60;;;1.70;;
77322;SDS011;66384;51.052;9.850;2023-04-24T00:41:26;2.20;;;1.60;;
77322;SDS011;66384;51.052;9.850;2023-04-24T00:43:55;2.30;;;1.50;;
77322;SDS011;66384;51.052;9.850;2023-04-24T00:46:25;2.30;;;1.50;;
77322;SDS011;66384;51.052;9.850;2023-04-24T00:48:54;4.90;;;1.70;;
77322;SDS011;66384;51.052;9.850;2023-04-24T00:51:26;3.00;;;1.50;;
77322;SDS011;66384;51.052;9.850;2023-04-24T00:56:24;1.60;;;1.40;;
77322;SDS011;66384;51.052;9.850;2023-04-24T00:58:54;1.80;;;1.20;;
77322;SDS011;66384;51.052;9.850;2023-04-24T01:01:25;2.80;;;1.70;;
77322;SDS011;66384;51.052;9.850;2023-04-24T01:03:54;2.00;;;1.30;;
77322;SDS011;66384;51.052;9.850;2023-04-24T01:06:25;3.10;;;1.20;;
77322;SDS011;66384;51.052;9.850;2023-04-24T01:08:57;2.60;;;1.60;;
77322;SDS011;66384;51.052;9.850;2023-04-24T01:11:27;3.00;;;1.70;;
77322;SDS011;66384;51.052;9.850;2023-04-24T01:13:58;2.20;;;1.70;;
77322;SDS011;66384;51.052;9.850;2023-04-24T01:16:27;2.00;;;1.50;;
77322;SDS011;66384;51.052;9.850;2023-04-24T01:18:57;2.90;;;1.90;;
77322;SDS011;66384;51.052;9.850;2023-04-24T01:21:26;1.80;;;1.40;;
77322;SDS011;66384;51.052;9.850;2023-04-24T01:23:57;2.80;;;1.70;;
77322;SDS011;66384;51.052;9.850;2023-04-24T01:26:27;2.80;;;1.60;;
77322;SDS011;66384;51.052;9.850;2023-04-24T01:28:56;4.10;;;1.80;;
77322;SDS011;66384;51.052;9.850;2023-04-24T01:31:26;3.00;;;1.60;;
77322;SDS011;66384;51.052;9.850;2023-04-24T01:33:56;3.00;;;1.80;;
77322;SDS011;66384;51.052;9.850;2023-04-24T01:36:25;3.90;;;2.00;;
77322;SDS011;66384;51.052;9.850;2023-04-24T01:38:56;2.60;;;1.70;;
77322;SDS011;66384;51.052;9.850;2023-04-24T01:41:25;2.80;;;1.80;;
77322;SDS011;66384;51.052;9.850;2023-04-24T01:43:55;2.30;;;2.00;;
77322;SDS011;66384;51.052;9.850;2023-04-24T01:46:25;2.70;;;2.10;;
77322;SDS011;66384;51.052;9.850;2023-04-24T01:48:55;4.30;;;2.00;;
77322;SDS011;66384;51.052;9.850;2023-04-24T01:51:25;2.30;;;1.40;;
77322;SDS011;66384;51.052;9.850;2023-04-24T01:53:54;3.40;;;1.80;;
77322;SDS011;66384;51.052;9.850;2023-04-24T01:56:24;3.60;;;1.80;;
77322;SDS011;66384;51.052;9.850;2023-04-24T01:58:56;4.20;;;2.20;;
77322;SDS011;66384;51.052;9.850;2023-04-24T02:01:27;4.10;;;2.30;;
77322;SDS011;66384;51.052;9.850;2023-04-24T02:04:00;2.30;;;1.80;;
77322;SDS011;66384;51.052;9.850;2023-04-24T02:06:29;2.60;;;2.00;;
77322;SDS011;66384;51.052;9.850;2023-04-24T02:08:59;2.80;;;1.90;;
77322;SDS011;66384;51.052;9.850;2023-04-24T02:11:29;5.30;;;2.20;;
77322;SDS011;66384;51.052;9.850;2023-04-24T02:13:59;3.30;;;2.10;;
77322;SDS011;66384;51.052;9.850;2023-04-24T02:16:29;3.50;;;2.30;;
77322;SDS011;66384;51.052;9.850;2023-04-24T02:19:00;4.20;;;2.60;;
77322;SDS011;66384;51.052;9.850;2023-04-24T02:21:29;4.50;;;2.40;;
77322;SDS011;66384;51.052;9.850;2023-04-24T02:23:59;3.50;;;2.10;;
77322;SDS011;66384;51.052;9.850;2023-04-24T02:26:28;2.70;;;1.70;;
77322;SDS011;66384;51.052;9.850;2023-04-24T02:28:58;2.90;;;1.90;;
77322;SDS011;66384;51.052;9.850;2023-04-24T02:31:28;3.10;;;2.00;;
77322;SDS011;66384;51.052;9.850;2023-04-24T02:33:57;2.40;;;1.80;;
77322;SDS011;66384;51.052;9.850;2023-04-24T02:36:26;2.80;;;2.10;;
77322;SDS011;66384;51.052;9.850;2023-04-24T02:38:56;3.80;;;2.00;;
77322;SDS011;66384;51.052;9.850;2023-04-24T02:41:25;2.10;;;1.60;;
77322;SDS011;66384;51.052;9.850;2023-04-24T02:43:58;3.30;;;1.70;;
77322;SDS011;66384;51.052;9.850;2023-04-24T02:46:27;2.20;;;1.60;;
77322;SDS011;66384;51.052;9.850;2023-04-24T02:48:56;3.20;;;1.70;;
77322;SDS011;66384;51.052;9.850;2023-04-24T02:51:25;4.10;;;2.30;;
77322;SDS011;66384;51.052;9.850;2023-04-24T02:53:55;3.00;;;1.80;;
77322;SDS011;66384;51.052;9.850;2023-04-24T02:56:24;4.70;;;2.50;;
77322;SDS011;66384;51.052;9.850;2023-04-24T02:58:53;3.50;;;1.90;;
77322;SDS011;66384;51.052;9.850;2023-04-24T03:01:22;3.40;;;1.80;;
77322;SDS011;66384;51.052;9.850;2023-04-24T03:03:52;2.80;;;1.90;;
77322;SDS011;66384;51.052;9.850;2023-04-24T03:06:21;2.60;;;1.80;;
77322;SDS011;66384;51.052;9.850;2023-04-24T03:08:51;2.50;;;1.80;;
77322;SDS011;66384;51.052;9.850;2023-04-24T03:11:21;6.20;;;2.70;;
77322;SDS011;66384;51.052;9.850;2023-04-24T03:13:50;2.80;;;1.90;;
77322;SDS011;66384;51.052;9.850;2023-04-24T03:16:19;3.00;;;1.90;;
77322;SDS011;66384;51.052;9.850;2023-04-24T03:18:48;3.70;;;1.80;;
77322;SDS011;66384;51.052;9.850;2023-04-24T03:21:18;2.40;;;1.60;;
77322;SDS011;66384;51.052;9.850;2023-04-24T03:23:47;3.40;;;2.10;;
77322;SDS011;66384;51.052;9.850;2023-04-24T03:26:17;3.00;;;2.00;;
77322;SDS011;66384;51.052;9.850;2023-04-24T03:28:46;3.80;;;2.10;;
77322;SDS011;66384;51.052;9.850;2023-04-24T03:31:15;2.70;;;1.80;;
77322;SDS011;66384;51.052;9.850;2023-04-24T03:33:45;3.40;;;1.80;;
77322;SDS011;66384;51.052;9.850;2023-04-24T03:36:14;2.30;;;1.60;;
77322;SDS011;66384;51.052;9.850;2023-04-24T03:41:13;2.30;;;1.90;;
77322;SDS011;66384;51.052;9.850;2023-04-24T03:43:42;2.10;;;1.60;;
77322;SDS011;66384;51.052;9.850;2023-04-24T03:46:11;3.10;;;1.80;;
77322;SDS011;66384;51.052;9.850;2023-04-24T03:48:41;2.60;;;1.60;;
77322;SDS011;66384;51.052;9.850;2023-04-24T03:51:10;2.90;;;2.20;;
77322;SDS011;66384;51.052;9.850;2023-04-24T03:53:40;3.00;;;1.80;;
77322;SDS011;66384;51.052;9.850;2023-04-24T03:56:09;2.60;;;1.60;;
77322;SDS011;66384;51.052;9.850;2023-04-24T03:58:38;2.20;;;1.40;;
77322;SDS011;66384;51.052;9.850;2023-04-24T04:01:07;3.70;;;1.70;;
77322;SDS011;66384;51.052;9.850;2023-04-24T04:03:38;2.80;;;1.50;;
77322;SDS011;66384;51.052;9.850;2023-04-24T04:06:07;4.10;;;1.50;;
77322;SDS011;66384;51.052;9.850;2023-04-24T04:08:37;3.30;;;1.40;;
77322;SDS011;66384;51.052;9.850;2023-04-24T04:11:06;1.90;;;1.60;;
77322;SDS011;66384;51.052;9.850;2023-04-24T04:13:36;2.70;;;1.70;;
77322;SDS011;66384;51.052;9.850;2023-04-24T04:16:05;3.10;;;1.50;;
77322;SDS011;66384;51.052;9.850;2023-04-24T04:18:36;5.30;;;2.00;;
77322;SDS011;66384;51.052;9.850;2023-04-24T04:21:05;3.00;;;1.50;;
77322;SDS011;66384;51.052;9.850;2023-04-24T04:23:34;3.30;;;1.50;;
77322;SDS011;66384;51.052;9.850;2023-04-24T04:26:03;2.40;;;1.50;;
77322;SDS011;66384;51.052;9.850;2023-04-24T04:28:34;3.30;;;1.50;;
77322;SDS011;66384;51.052;9.850;2023-04-24T04:31:04;2.30;;;1.30;;
77322;SDS011;66384;51.052;9.850;2023-04-24T04:33:34;2.60;;;1.70;;
77322;SDS011;66384;51.052;9.850;2023-04-24T04:36:05;2.80;;;1.40;;
77322;SDS011;66384;51.052;9.850;2023-04-24T04:38:35;1.90;;;1.30;;
77322;SDS011;66384;51.052;9.850;2023-04-24T04:41:04;2.20;;;1.60;;
77322;SDS011;66384;51.052;9.850;2023-04-24T04:43:33;2.70;;;1.10;;
77322;SDS011;66384;51.052;9.850;2023-04-24T04:46:03;3.10;;;1.80;;
77322;SDS011;66384;51.052;9.850;2023-04-24T04:48:32;2.90;;;1.40;;
77322;SDS011;66384;51.052;9.850;2023-04-24T04:51:01;3.50;;;2.00;;
77322;SDS011;66384;51.052;9.850;2023-04-24T04:53:32;2.40;;;1.40;;
77322;SDS011;66384;51.052;9.850;2023-04-24T04:56:01;3.50;;;1.70;;
77322;SDS011;66384;51.052;9.850;2023-04-24T04:58:30;1.80;;;1.50;;
77322;SDS011;66384;51.052;9.850;2023-04-24T05:01:00;3.10;;;2.00;;
77322;SDS011;66384;51.052;9.850;2023-04-24T05:03:29;1.80;;;1.40;;
77322;SDS011;66384;51.052;9.850;2023-04-24T05:05:59;1.90;;;1.30;;
77322;SDS011;66384;51.052;9.850;2023-04-24T05:08:28;1.80;;;1.40;;
77322;SDS011;66384;51.052;9.850;2023-04-24T05:10:57;2.20;;;1.60;;
77322;SDS011;66384;51.052;9.850;2023-04-24T05:13:26;2.50;;;1.50;;
77322;SDS011;66384;51.052;9.850;2023-04-24T05:15:56;2.90;;;1.40;;
77322;SDS011;66384;51.052;9.850;2023-04-24T05:18:26;2.60;;;1.80;;
77322;SDS011;66384;51.052;9.850;2023-04-24T05:20:56;2.70;;;1.70;;
77322;SDS011;66384;51.052;9.850;2023-04-24T05:23:25;3.50;;;1.80;;
77322;SDS011;66384;51.052;9.850;2023-04-24T05:25:55;3.70;;;2.00;;
77322;SDS011;66384;51.052;9.850;2023-04-24T05:28:24;2.60;;;1.70;;
77322;SDS011;66384;51.052;9.850;2023-04-24T05:30:54;2.50;;;1.70;;
77322;SDS011;66384;51.052;9.850;2023-04-24T05:33:25;2.70;;;1.90;;
77322;SDS011;66384;51.052;9.850;2023-04-24T05:35:54;3.30;;;2.00;;
77322;SDS011;66384;51.052;9.850;2023-04-24T05:38:24;3.00;;;1.80;;
77322;SDS011;66384;51.052;9.850;2023-04-24T05:40:53;2.30;;;1.70;;
77322;SDS011;66384;51.052;9.850;2023-04-24T05:43:22;2.50;;;1.80;;
77322;SDS011;66384;51.052;9.850;2023-04-24T05:45:51;3.50;;;1.60;;
77322;SDS011;66384;51.052;9.850;2023-04-24T05:48:21;1.70;;;1.40;;
77322;SDS011;66384;51.052;9.850;2023-04-24T05:50:50;2.70;;;1.70;;
77322;SDS011;66384;51.052;9.850;2023-04-24T05:53:20;3.80;;;1.50;;
77322;SDS011;66384;51.052;9.850;2023-04-24T05:55:49;2.20;;;1.50;;
77322;SDS011;66384;51.052;9.850;2023-04-24T05:58:18;2.50;;;1.70;;
77322;SDS011;66384;51.052;9.850;2023-04-24T06:00:47;3.20;;;1.60;;
77322;SDS011;66384;51.052;9.850;2023-04-24T06:03:17;2.00;;;1.40;;
77322;SDS011;66384;51.052;9.850;2023-04-24T06:05:46;2.50;;;1.80;;
77322;SDS011;66384;51.052;9.850;2023-04-24T06:08:17;3.90;;;1.70;;
77322;SDS011;66384;51.052;9.850;2023-04-24T06:10:46;2.80;;;1.60;;
77322;SDS011;66384;51.052;9.850;2023-04-24T06:13:16;2.30;;;1.60;;
77322;SDS011;66384;51.052;9.850;2023-04-24T06:15:45;3.20;;;1.90;;
77322;SDS011;66384;51.052;9.850;2023-04-24T06:18:14;6.10;;;2.10;;
77322;SDS011;66384;51.052;9.850;2023-04-24T06:20:44;2.10;;;1.50;;
77322;SDS011;66384;51.052;9.850;2023-04-24T06:23:14;3.90;;;2.00;;
77322;SDS011;66384;51.052;9.850;2023-04-24T06:25:43;3.30;;;2.30;;
77322;SDS011;66384;51.052;9.850;2023-04-24T06:28:12;4.50;;;1.90;;
77322;SDS011;66384;51.052;9.850;2023-04-24T06:30:42;3.10;;;2.20;;
77322;SDS011;66384;51.052;9.850;2023-04-24T06:33:11;3.10;;;2.20;;
77322;SDS011;66384;51.052;9.850;2023-04-24T06:35:40;3.20;;;2.10;;
77322;SDS011;66384;51.052;9.850;2023-04-24T06:38:10;3.90;;;2.20;;
77322;SDS011;66384;51.052;9.850;2023-04-24T06:40:39;3.00;;;2.20;;
77322;SDS011;66384;51.052;9.850;2023-04-24T06:43:09;3.10;;;2.10;;
77322;SDS011;66384;51.052;9.850;2023-04-24T06:45:38;2.80;;;2.10;;
77322;SDS011;66384;51.052;9.850;2023-04-24T06:48:09;3.60;;;2.40;;
77322;SDS011;66384;51.052;9.850;2023-04-24T06:50:38;3.00;;;2.00;;
77322;SDS011;66384;51.052;9.850;2023-04-24T06:53:08;3.40;;;2.20;;
77322;SDS011;66384;51.052;9.850;2023-04-24T06:58:06;2.70;;;1.80;;
77322;SDS011;66384;51.052;9.850;2023-04-24T07:00:36;4.00;;;1.90;;
77322;SDS011;66384;51.052;9.850;2023-04-24T07:03:05;3.20;;;2.00;;
77322;SDS011;66384;51.052;9.850;2023-04-24T07:05:34;2.80;;;1.70;;
77322;SDS011;66384;51.052;9.850;2023-04-24T07:08:04;3.50;;;1.90;;
77322;SDS011;66384;51.052;9.850;2023-04-24T07:10:35;3.30;;;2.30;;
77322;SDS011;66384;51.052;9.850;2023-04-24T07:13:04;3.10;;;2.00;;
77322;SDS011;66384;51.052;9.850;2023-04-24T07:15:34;3.80;;;2.10;;
77322;SDS011;66384;51.052;9.850;2023-04-24T07:18:04;3.70;;;2.00;;
77322;SDS011;66384;51.052;9.850;2023-04-24T07:20:33;3.40;;;2.10;;
77322;SDS011;66384;51.052;9.850;2023-04-24T07:23:03;4.30;;;2.10;;
77322;SDS011;66384;51.052;9.850;2023-04-24T07:25:32;2.70;;;2.00;;
77322;SDS011;66384;51.052;9.850;2023-04-24T07:28:01;2.60;;;1.90;;
77322;SDS011;66384;51.052;9.850;2023-04-24T07:30:31;4.00;;;2.20;;
77322;SDS011;66384;51.052;9.850;2023-04-24T07:33:00;2.80;;;1.90;;
77322;SDS011;66384;51.052;9.850;2023-04-24T07:35:29;4.50;;;2.10;;
77322;SDS011;66384;51.052;9.850;2023-04-24T07:38:00;3.10;;;2.40;;
77322;SDS011;66384;51.052;9.850;2023-04-24T07:40:29;2.70;;;2.10;;
77322;SDS011;66384;51.052;9.850;2023-04-24T07:42:59;3.30;;;2.20;;
77322;SDS011;66384;51.052;9.850;2023-04-24T07:45:28;3.40;;;2.10;;
77322;SDS011;66384;51.052;9.850;2023-04-24T07:47:57;4.70;;;2.10;;
77322;SDS011;66384;51.052;9.850;2023-04-24T07:50:27;3.50;;;2.40;;
77322;SDS011;66384;51.052;9.850;2023-04-24T07:52:56;5.80;;;3.10;;
77322;SDS011;66384;51.052;9.850;2023-04-24T07:55:25;3.80;;;2.20;;
77322;SDS011;66384;51.052;9.850;2023-04-24T07:57:55;4.90;;;2.20;;
77322;SDS011;66384;51.052;9.850;2023-04-24T08:00:26;3.50;;;2.30;;
77322;SDS011;66384;51.052;9.850;2023-04-24T08:02:55;2.80;;;2.20;;
77322;SDS011;66384;51.052;9.850;2023-04-24T08:05:24;3.60;;;2.90;;
77322;SDS011;66384;51.052;9.850;2023-04-24T08:07:54;3.60;;;2.50;;
77322;SDS011;66384;51.052;9.850;2023-04-24T08:10:24;2.50;;;1.80;;
77322;SDS011;66384;51.052;9.850;2023-04-24T08:12:54;4.30;;;2.30;;
77322;SDS011;66384;51.052;9.850;2023-04-24T08:15:23;3.30;;;2.20;;
77322;SDS011;66384;51.052;9.850;2023-04-24T08:17:52;3.70;;;2.70;;
77322;SDS011;66384;51.052;9.850;2023-04-24T08:20:22;3.70;;;2.50;;
77322;SDS011;66384;51.052;9.850;2023-04-24T08:22:51;4.50;;;2.50;;
77322;SDS011;66384;51.052;9.850;2023-04-24T08:25:21;4.40;;;2.60;;
77322;SDS011;66384;51.052;9.850;2023-04-24T08:27:51;3.30;;;2.50;;
77322;SDS011;66384;51.052;9.850;2023-04-24T08:30:20;3.90;;;2.30;;
77322;SDS011;66384;51.052;9.850;2023-04-24T08:32:50;4.90;;;3.20;;
77322;SDS011;66384;51.052;9.850;2023-04-24T08:35:19;4.10;;;2.90;;
77322;SDS011;66384;51.052;9.850;2023-04-24T08:37:49;4.50;;;3.10;;
77322;SDS011;66384;51.052;9.850;2023-04-24T08:40:20;3.40;;;2.60;;
77322;SDS011;66384;51.052;9.850;2023-04-24T08:42:56;3.70;;;2.40;;
77322;SDS011;66384;51.052;9.850;2023-04-24T08:45:26;3.60;;;2.20;;
77322;SDS011;66384;51.052;9.850;2023-04-24T08:47:56;4.10;;;2.30;;
77322;SDS011;66384;51.052;9.850;2023-04-24T08:50:27;4.70;;;2.40;;
77322;SDS011;66384;51.052;9.850;2023-04-24T08:53:00;7.20;;;2.70;;
77322;SDS011;66384;51.052;9.850;2023-04-24T08:57:59;3.80;;;2.80;;
77322;SDS011;66384;51.052;9.850;2023-04-24T09:00:29;5.80;;;2.80;;
77322;SDS011;66384;51.052;9.850;2023-04-24T09:03:00;5.60;;;2.90;;
77322;SDS011;66384;51.052;9.850;2023-04-24T09:05:29;4.50;;;2.70;;
77322;SDS011;66384;51.052;9.850;2023-04-24T09:08:00;4.60;;;2.90;;
77322;SDS011;66384;51.052;9.850;2023-04-24T09:10:32;3.20;;;2.60;;
77322;SDS011;66384;51.052;9.850;2023-04-24T09:13:03;3.90;;;2.70;;
77322;SDS011;66384;51.052;9.850;2023-04-24T09:15:35;3.80;;;2.30;;
77322;SDS011;66384;51.052;9.850;2023-04-24T09:18:05;3.30;;;2.30;;
77322;SDS011;66384;51.052;9.850;2023-04-24T09:20:34;3.00;;;2.30;;
77322;SDS011;66384;51.052;9.850;2023-04-24T09:23:24;2.80;;;2.00;;
77322;SDS011;66384;51.052;9.850;2023-04-24T09:25:55;3.90;;;2.70;;
77322;SDS011;66384;51.052;9.850;2023-04-24T09:28:27;3.80;;;2.30;;
77322;SDS011;66384;51.052;9.850;2023-04-24T09:31:08;4.10;;;2.40;;
77322;SDS011;66384;51.052;9.850;2023-04-24T09:33:44;4.10;;;2.50;;
77322;SDS011;66384;51.052;9.850;2023-04-24T09:36:27;3.30;;;2.40;;
77322;SDS011;66384;51.052;9.850;2023-04-24T09:38:59;3.40;;;2.30;;
77322;SDS011;66384;51.052;9.850;2023-04-24T09:41:31;4.00;;;2.70;;
77322;SDS011;66384;51.052;9.850;2023-04-24T09:44:11;3.10;;;2.20;;
77322;SDS011;66384;51.052;9.850;2023-04-24T09:46:42;3.40;;;2.70;;
77322;SDS011;66384;51.052;9.850;2023-04-24T09:49:13;4.50;;;3.00;;
77322;SDS011;66384;51.052;9.850;2023-04-24T09:51:43;4.90;;;2.50;;
77322;SDS011;66384;51.052;9.850;2023-04-24T09:54:16;5.70;;;3.20;;
77322;SDS011;66384;51.052;9.850;2023-04-24T09:56:48;3.10;;;2.30;;
77322;SDS011;66384;51.052;9.850;2023-04-24T09:59:18;3.80;;;2.30;;
77322;SDS011;66384;51.052;9.850;2023-04-24T10:01:48;3.70;;;2.10;;
77322;SDS011;66384;51.052;9.850;2023-04-24T10:04:19;2.70;;;2.20;;
77322;SDS011;66384;51.052;9.850;2023-04-24T10:06:53;4.70;;;2.40;;
77322;SDS011;66384;51.052;9.850;2023-04-24T10:09:24;3.30;;;2.40;;
77322;SDS011;66384;51.052;9.850;2023-04-24T10:11:54;3.20;;;2.20;;
77322;SDS011;66384;51.052;9.850;2023-04-24T10:14:24;3.30;;;2.20;;
77322;SDS011;66384;51.052;9.850;2023-04-24T10:16:54;3.50;;;2.50;;
77322;SDS011;66384;51.052;9.850;2023-04-24T10:19:25;2.70;;;2.00;;
77322;SDS011;66384;51.052;9.850;2023-04-24T10:21:54;3.60;;;2.10;;
77322;SDS011;66384;51.052;9.850;2023-04-24T10:24:25;2.90;;;1.90;;
77322;SDS011;66384;51.052;9.850;2023-04-24T10:26:55;4.10;;;2.00;;
77322;SDS011;66384;51.052;9.850;2023-04-24T10:29:26;2.50;;;1.80;;
77322;SDS011;66384;51.052;9.850;2023-04-24T10:31:58;2.60;;;2.20;;
77322;SDS011;66384;51.052;9.850;2023-04-24T10:34:28;2.90;;;2.00;;
77322;SDS011;66384;51.052;9.850;2023-04-24T10:36:58;2.70;;;2.00;;
77322;SDS011;66384;51.052;9.850;2023-04-24T10:39:27;3.40;;;2.30;;
77322;SDS011;66384;51.052;9.850;2023-04-24T10:41:59;3.80;;;2.20;;
77322;SDS011;66384;51.052;9.850;2023-04-24T10:44:35;2.80;;;2.20;;
77322;SDS011;66384;51.052;9.850;2023-04-24T10:47:04;3.80;;;2.50;;
77322;SDS011;66384;51.052;9.850;2023-04-24T10:49:40;2.10;;;1.70;;
77322;SDS011;66384;51.052;9.850;2023-04-24T10:52:10;3.00;;;1.60;;
77322;SDS011;66384;51.052;9.850;2023-04-24T10:54:42;3.50;;;1.90;;
77322;SDS011;66384;51.052;9.850;2023-04-24T10:57:29;4.80;;;2.40;;
77322;SDS011;66384;51.052;9.850;2023-04-24T11:00:12;3.50;;;2.40;;
77322;SDS011;66384;51.052;9.850;2023-04-24T11:02:45;5.50;;;2.10;;
77322;SDS011;66384;51.052;9.850;2023-04-24T11:05:19;3.90;;;2.00;;
77322;SDS011;66384;51.052;9.850;2023-04-24T11:10:43;2.60;;;1.80;;
77322;SDS011;66384;51.052;9.850;2023-04-24T11:13:15;2.90;;;1.90;;
77322;SDS011;66384;51.052;9.850;2023-04-24T11:15:53;3.20;;;2.30;;
77322;SDS011;66384;51.052;9.850;2023-04-24T11:18:41;3.20;;;2.00;;
77322;SDS011;66384;51.052;9.850;2023-04-24T11:21:17;3.10;;;2.00;;
77322;SDS011;66384;51.052;9.850;2023-04-24T11:23:47;4.20;;;2.20;;
77322;SDS011;66384;51.052;9.850;2023-04-24T11:26:18;3.40;;;2.30;;
77322;SDS011;66384;51.052;9.850;2023-04-24T11:28:50;2.10;;;1.50;;
77322;SDS011;66384;51.052;9.850;2023-04-24T11:31:36;3.40;;;1.60;;
77322;SDS011;66384;51.052;9.850;2023-04-24T11:34:11;2.70;;;1.70;;
77322;SDS011;66384;51.052;9.850;2023-04-24T11:36:42;1.70;;;1.30;;
77322;SDS011;66384;51.052;9.850;2023-04-24T11:41:40;2.10;;;1.40;;
77322;SDS011;66384;51.052;9.850;2023-04-24T11:44:09;2.90;;;1.50;;
77322;SDS011;66384;51.052;9.850;2023-04-24T11:46:39;2.30;;;1.70;;
77322;SDS011;66384;51.052;9.850;2023-04-24T11:49:08;2.40;;;1.90;;
77322;SDS011;66384;51.052;9.850;2023-04-24T11:51:37;2.00;;;1.40;;
77322;SDS011;66384;51.052;9.850;2023-04-24T11:54:07;2.00;;;1.30;;
77322;SDS011;66384;51.052;9.850;2023-04-24T11:56:36;2.80;;;1.40;;
77322;SDS011;66384;51.052;9.850;2023-04-24T11:59:06;1.70;;;1.10;;
77322;SDS011;66384;51.052;9.850;2023-04-24T12:01:43;2.60;;;1.30;;
77322;SDS011;66384;51.052;9.850;2023-04-24T12:04:13;1.00;;;0.70;;
77322;SDS011;66384;51.052;9.850;2023-04-24T12:09:32;2.90;;;1.40;;
77322;SDS011;66384;51.052;9.850;2023-04-24T12:12:10;2.10;;;0.90;;
77322;SDS011;66384;51.052;9.850;2023-04-24T12:14:44;1.10;;;1.00;;
77322;SDS011;66384;51.052;9.850;2023-04-24T12:17:14;1.80;;;1.20;;
77322;SDS011;66384;51.052;9.850;2023-04-24T12:19:47;1.00;;;0.60;;
77322;SDS011;66384;51.052;9.850;2023-04-24T12:22:17;2.30;;;1.30;;
77322;SDS011;66384;51.052;9.850;2023-04-24T12:24:56;1.30;;;0.70;;
77322;SDS011;66384;51.052;9.850;2023-04-24T12:27:32;0.60;;;0.60;;
77322;SDS011;66384;51.052;9.850;2023-04-24T12:30:02;1.00;;;0.80;;
77322;SDS011;66384;51.052;9.850;2023-04-24T12:32:33;0.50;;;0.50;;
77322;SDS011;66384;51.052;9.850;2023-04-24T12:35:08;0.70;;;0.70;;
77322;SDS011;66384;51.052;9.850;2023-04-24T12:37:41;0.80;;;0.80;;
77322;SDS011;66384;51.052;9.850;2023-04-24T12:40:11;0.80;;;0.80;;
77322;SDS011;66384;51.052;9.850;2023-04-24T12:42:43;0.80;;;0.70;;
77322;SDS011;66384;51.052;9.850;2023-04-24T12:45:14;0.70;;;0.50;;
77322;SDS011;66384;51.052;9.850;2023-04-24T12:47:45;1.00;;;0.60;;
77322;SDS011;66384;51.052;9.850;2023-04-24T12:50:16;0.60;;;0.60;;
77322;SDS011;66384;51.052;9.850;2023-04-24T12:52:45;1.00;;;0.70;;
77322;SDS011;66384;51.052;9.850;2023-04-24T12:55:15;1.10;;;0.80;;
77322;SDS011;66384;51.052;9.850;2023-04-24T12:57:44;1.90;;;0.80;;
77322;SDS011;66384;51.052;9.850;2023-04-24T13:00:15;1.20;;;0.80;;
77322;SDS011;66384;51.052;9.850;2023-04-24T13:02:45;1.00;;;0.90;;
77322;SDS011;66384;51.052;9.850;2023-04-24T13:05:14;1.40;;;1.00;;
77322;SDS011;66384;51.052;9.850;2023-04-24T13:07:43;2.50;;;1.20;;
77322;SDS011;66384;51.052;9.850;2023-04-24T13:10:13;2.40;;;1.50;;
77322;SDS011;66384;51.052;9.850;2023-04-24T13:12:42;1.70;;;1.20;;
77322;SDS011;66384;51.052;9.850;2023-04-24T13:15:12;2.00;;;1.40;;
77322;SDS011;66384;51.052;9.850;2023-04-24T13:17:41;1.70;;;1.20;;
77322;SDS011;66384;51.052;9.850;2023-04-24T13:20:11;9.10;;;5.50;;
77322;SDS011;66384;51.052;9.850;2023-04-24T13:22:40;3.20;;;2.00;;
77322;SDS011;66384;51.052;9.850;2023-04-24T13:25:10;3.00;;;2.00;;
77322;SDS011;66384;51.052;9.850;2023-04-24T13:27:39;2.70;;;1.70;;
77322;SDS011;66384;51.052;9.850;2023-04-24T13:30:09;1.30;;;1.20;;
77322;SDS011;66384;51.052;9.850;2023-04-24T13:32:39;1.50;;;1.20;;
77322;SDS011;66384;51.052;9.850;2023-04-24T13:35:09;2.30;;;1.20;;
77322;SDS011;66384;51.052;9.850;2023-04-24T13:37:38;1.40;;;1.30;;
77322;SDS011;66384;51.052;9.850;2023-04-24T13:40:08;1.50;;;1.20;;
77322;SDS011;66384;51.052;9.850;2023-04-24T13:45:07;1.30;;;1.00;;
77322;SDS011;66384;51.052;9.850;2023-04-24T13:47:38;2.00;;;1.40;;
77322;SDS011;66384;51.052;9.850;2023-04-24T13:50:08;2.20;;;1.60;;
77322;SDS011;66384;51.052;9.850;2023-04-24T13:55:06;1.80;;;1.50;;
77322;SDS011;66384;51.052;9.850;2023-04-24T13:57:37;2.10;;;1.70;;
77322;SDS011;66384;51.052;9.850;2023-04-24T14:00:07;2.90;;;2.00;;
77322;SDS011;66384;51.052;9.850;2023-04-24T14:02:38;2.60;;;2.00;;
77322;SDS011;66384;51.052;9.850;2023-04-24T14:05:08;4.80;;;2.40;;
77322;SDS011;66384;51.052;9.850;2023-04-24T14:10:06;2.00;;;1.50;;
77322;SDS011;66384;51.052;9.850;2023-04-24T14:12:36;6.60;;;2.60;;
77322;SDS011;66384;51.052;9.850;2023-04-24T14:15:07;7.70;;;3.90;;
77322;SDS011;66384;51.052;9.850;2023-04-24T14:17:39;16.40;;;8.10;;
77322;SDS011;66384;51.052;9.850;2023-04-24T14:20:09;12.40;;;5.80;;
77322;SDS011;66384;51.052;9.850;2023-04-24T14:25:08;6.20;;;3.60;;
77322;SDS011;66384;51.052;9.850;2023-04-24T14:27:37;3.80;;;2.00;;
77322;SDS011;66384;51.052;9.850;2023-04-24T14:30:08;2.70;;;2.10;;
77322;SDS011;66384;51.052;9.850;2023-04-24T14:32:39;2.70;;;1.80;;
77322;SDS011;66384;51.052;9.850;2023-04-24T14:35:08;4.00;;;2.30;;
77322;SDS011;66384;51.052;9.850;2023-04-24T14:37:38;2.30;;;2.00;;
77322;SDS011;66384;51.052;9.850;2023-04-24T14:40:09;2.70;;;2.00;;
77322;SDS011;66384;51.052;9.850;2023-04-24T14:42:39;2.70;;;2.00;;
77322;SDS011;66384;51.052;9.850;2023-04-24T14:45:09;4.20;;;2.80;;
77322;SDS011;66384;51.052;9.850;2023-04-24T14:47:39;4.50;;;3.10;;
77322;SDS011;66384;51.052;9.850;2023-04-24T14:50:09;6.20;;;3.90;;
77322;SDS011;66384;51.052;9.850;2023-04-24T14:55:07;5.40;;;3.30;;
77322;SDS011;66384;51.052;9.850;2023-04-24T14:57:37;7.70;;;3.60;;
77322;SDS011;66384;51.052;9.850;2023-04-24T15:00:08;7.70;;;4.40;;
77322;SDS011;66384;51.052;9.850;2023-04-24T15:02:38;6.90;;;3.80;;
77322;SDS011;66384;51.052;9.850;2023-04-24T15:05:10;8.50;;;4.80;;
77322;SDS011;66384;51.052;9.850;2023-04-24T15:07:40;13.30;;;6.20;;
77322;SDS011;66384;51.052;9.850;2023-04-24T15:10:10;9.30;;;5.10;;
77322;SDS011;66384;51.052;9.850;2023-04-24T15:12:39;9.10;;;4.70;;
77322;SDS011;66384;51.052;9.850;2023-04-24T15:15:09;10.50;;;5.80;;
77322;SDS011;66384;51.052;9.850;2023-04-24T15:17:38;9.50;;;4.90;;
77322;SDS011;66384;51.052;9.850;2023-04-24T15:20:08;9.20;;;5.20;;
77322;SDS011;66384;51.052;9.850;2023-04-24T15:22:38;12.30;;;6.60;;
77322;SDS011;66384;51.052;9.850;2023-04-24T15:25:08;10.10;;;4.60;;
77322;SDS011;66384;51.052;9.850;2023-04-24T15:27:41;19.90;;;8.50;;
77322;SDS011;66384;51.052;9.850;2023-04-24T15:30:12;7.10;;;4.10;;
77322;SDS011;66384;51.052;9.850;2023-04-24T15:32:41;5.30;;;3.70;;
77322;SDS011;66384;51.052;9.850;2023-04-24T15:35:11;4.10;;;2.40;;
77322;SDS011;66384;51.052;9.850;2023-04-24T15:37:40;2.30;;;2.00;;